createdAt,value
2018-03-24T00:02:11.051Z,24.00
2018-03-24T00:04:38.405Z,25.03
2018-03-24T00:07:05.783Z,27.10
2018-03-24T00:09:33.166Z,24.90
2018-03-24T00:12:00.539Z,25.27
2018-03-24T00:14:27.898Z,26.20
2018-03-24T00:16:55.283Z,30.00
2018-03-24T00:19:22.632Z,29.83
2018-03-24T00:21:50.001Z,27.37
2018-03-24T00:24:17.376Z,28.00
2018-03-24T00:26:44.744Z,27.27
2018-03-24T00:29:12.122Z,27.43
2018-03-24T00:31:39.510Z,27.13
2018-03-24T00:34:06.844Z,27.93
2018-03-24T00:36:34.223Z,24.77
2018-03-24T00:39:01.600Z,26.97
2018-03-24T00:41:29.000Z,28.53
2018-03-24T00:43:56.339Z,28.67
2018-03-24T00:46:23.739Z,34.37
2018-03-24T00:48:51.109Z,29.37
2018-03-24T00:51:18.470Z,26.47
2018-03-24T00:53:45.826Z,28.67
2018-03-24T00:56:13.199Z,28.97
2018-03-24T00:58:40.546Z,30.10
2018-03-24T01:01:07.969Z,28.93
2018-03-24T01:03:35.288Z,25.80
2018-03-24T01:06:02.668Z,27.70
2018-03-24T01:08:30.013Z,24.73
2018-03-24T01:10:57.382Z,24.73
2018-03-24T01:13:24.739Z,25.63
2018-03-24T01:15:52.137Z,26.70
2018-03-24T01:18:19.480Z,25.23
2018-03-24T01:20:46.851Z,30.27
2018-03-24T01:23:14.200Z,32.03
2018-03-24T01:25:41.663Z,32.60
2018-03-24T01:28:09.048Z,34.93
2018-03-24T01:30:36.406Z,31.40
2018-03-24T01:33:03.776Z,29.60
2018-03-24T01:35:31.130Z,31.20
2018-03-24T01:37:58.502Z,29.70
2018-03-24T01:40:25.843Z,29.00
2018-03-24T01:42:53.215Z,28.70
2018-03-24T01:45:20.556Z,29.63
2018-03-24T01:47:47.935Z,27.57
2018-03-24T01:50:15.296Z,27.90
2018-03-24T01:52:42.671Z,27.27
2018-03-24T01:55:10.009Z,28.27
2018-03-24T01:57:37.384Z,30.50
2018-03-24T02:00:04.727Z,23.50
2018-03-24T02:02:32.163Z,26.80
2018-03-24T02:04:59.520Z,23.20
2018-03-24T02:07:26.906Z,26.73
2018-03-24T02:09:55.126Z,28.50
2018-03-24T02:12:22.504Z,29.30
2018-03-24T02:14:49.864Z,29.97
2018-03-24T02:17:17.232Z,28.23
2018-03-24T02:19:44.579Z,27.57
2018-03-24T02:22:11.950Z,32.93
2018-03-24T02:24:54.180Z,28.13
2018-03-24T02:27:21.580Z,31.80
2018-03-24T02:29:48.932Z,26.80
2018-03-24T02:32:16.306Z,27.00
2018-03-24T02:34:43.855Z,27.87
2018-03-24T02:37:11.293Z,28.43
2018-03-24T02:39:38.639Z,34.50
2018-03-24T02:42:06.019Z,26.40
2018-03-24T02:44:33.369Z,30.10
2018-03-24T02:47:00.740Z,24.53
2018-03-24T02:49:28.088Z,27.80
2018-03-24T02:51:55.452Z,29.10
2018-03-24T02:54:22.828Z,31.50
2018-03-24T02:56:50.174Z,27.20
2018-03-24T02:59:17.549Z,27.20
2018-03-24T03:01:44.892Z,26.93
2018-03-24T03:04:12.285Z,34.20
2018-03-24T03:06:39.696Z,27.13
2018-03-24T03:09:07.067Z,24.70
2018-03-24T03:11:34.428Z,25.40
2018-03-24T03:14:01.801Z,28.33
2018-03-24T03:16:29.160Z,25.10
2018-03-24T03:18:56.531Z,29.50
2018-03-24T03:21:23.880Z,29.80
2018-03-24T03:23:51.304Z,31.23
2018-03-24T03:26:18.647Z,33.60
2018-03-24T03:28:46.024Z,36.47
2018-03-24T03:31:15.101Z,33.80
2018-03-24T03:33:42.472Z,38.87
2018-03-24T03:36:09.815Z,36.33
2018-03-24T03:38:37.255Z,36.00
2018-03-24T03:41:04.599Z,28.20
2018-03-24T03:43:32.000Z,34.43
2018-03-24T03:45:59.339Z,34.70
2018-03-24T03:48:26.710Z,37.53
2018-03-24T03:50:54.070Z,35.00
2018-03-24T03:53:21.480Z,35.90
2018-03-24T03:55:48.840Z,37.23
2018-03-24T03:58:16.212Z,39.23
2018-03-24T04:00:43.555Z,44.50
2018-03-24T04:03:10.923Z,37.90
2018-03-24T04:05:38.271Z,38.60
2018-03-24T04:08:05.648Z,33.83
2018-03-24T04:10:32.988Z,40.70
2018-03-24T04:13:00.359Z,37.70
2018-03-24T04:15:27.704Z,37.50
2018-03-24T04:17:55.075Z,47.37
2018-03-24T04:20:22.434Z,37.97
2018-03-24T04:22:49.778Z,39.00
2018-03-24T04:25:17.170Z,40.30
2018-03-24T04:27:44.508Z,46.37
2018-03-24T04:30:11.915Z,40.33
2018-03-24T04:32:39.258Z,40.63
2018-03-24T04:35:06.634Z,44.43
2018-03-24T04:37:33.978Z,39.67
2018-03-24T04:40:01.345Z,42.40
2018-03-24T04:42:28.725Z,44.53
2018-03-24T04:44:56.133Z,36.73
2018-03-24T04:47:23.502Z,42.70
2018-03-24T04:49:50.867Z,43.00
2018-03-24T04:52:18.223Z,47.90
2018-03-24T04:54:45.591Z,51.83
2018-03-24T04:57:12.948Z,49.50
2018-03-24T04:59:40.318Z,44.87
2018-03-24T05:02:07.680Z,47.97
2018-03-24T05:04:35.037Z,43.27
2018-03-24T05:07:02.384Z,46.13
2018-03-24T05:09:29.754Z,48.23
2018-03-24T05:11:57.128Z,44.40
2018-03-24T05:14:24.496Z,50.30
2018-03-24T05:16:51.831Z,45.27
2018-03-24T05:19:19.990Z,48.87
2018-03-24T05:21:48.410Z,43.10
2018-03-24T05:24:15.781Z,47.67
2018-03-24T05:26:43.129Z,38.67
2018-03-24T05:29:10.510Z,52.13
2018-03-24T05:31:37.863Z,46.17
2018-03-24T05:34:05.244Z,46.60
2018-03-24T05:36:32.600Z,43.47
2018-03-24T05:38:59.985Z,44.00
2018-03-24T05:41:27.334Z,44.17
2018-03-24T05:43:54.706Z,46.20
2018-03-24T05:46:22.079Z,48.20
2018-03-24T05:48:49.448Z,49.10
2018-03-24T05:51:16.785Z,47.33
2018-03-24T05:53:44.131Z,48.80
2018-03-24T05:56:11.522Z,44.40
2018-03-24T05:58:38.866Z,45.57
2018-03-24T06:01:06.246Z,46.60
2018-03-24T06:03:33.587Z,45.37
2018-03-24T06:06:00.968Z,48.70
2018-03-24T06:08:28.315Z,43.80
2018-03-24T06:10:55.682Z,47.50
2018-03-24T06:13:23.036Z,44.13
2018-03-24T06:15:50.405Z,50.47
2018-03-24T06:18:17.748Z,46.90
2018-03-24T06:20:45.229Z,51.43
2018-03-24T06:23:12.589Z,44.77
2018-03-24T06:25:39.968Z,44.53
2018-03-24T06:28:07.358Z,44.53
2018-03-24T06:30:35.295Z,46.63
2018-03-24T06:33:02.660Z,49.07
2018-03-24T06:35:30.203Z,47.20
2018-03-24T06:37:57.575Z,42.63
2018-03-24T06:40:25.022Z,53.00
2018-03-24T06:42:52.377Z,42.83
2018-03-24T06:45:19.763Z,45.20
2018-03-24T06:47:47.359Z,48.60
2018-03-24T06:50:14.734Z,51.43
2018-03-24T06:52:42.093Z,57.40
2018-03-24T06:55:09.467Z,51.17
2018-03-24T06:57:36.809Z,45.40
2018-03-24T07:00:04.191Z,53.93
2018-03-24T07:02:31.572Z,49.53
2018-03-24T07:04:58.963Z,52.20
2018-03-24T07:07:26.316Z,48.27
2018-03-24T07:09:53.723Z,53.87
2018-03-24T07:12:21.089Z,50.70
2018-03-24T07:14:48.464Z,69.97
2018-03-24T07:17:15.802Z,53.00
2018-03-24T07:19:43.159Z,88.80
2018-03-24T07:22:10.531Z,55.63
2018-03-24T07:24:37.887Z,55.23
2018-03-24T07:27:05.273Z,56.70
2018-03-24T07:29:32.610Z,53.83
2018-03-24T07:31:59.984Z,52.80
2018-03-24T07:34:27.327Z,49.30
2018-03-24T07:36:54.700Z,133.23
2018-03-24T07:39:22.048Z,74.80
2018-03-24T07:41:49.425Z,55.40
2018-03-24T07:44:16.767Z,50.33
2018-03-24T07:46:44.143Z,54.33
2018-03-24T07:49:11.486Z,52.27
2018-03-24T07:51:38.844Z,50.97
2018-03-24T07:54:06.186Z,51.00
2018-03-24T07:56:33.559Z,54.80
2018-03-24T07:59:00.913Z,46.50
2018-03-24T08:01:28.308Z,51.40
2018-03-24T08:03:55.657Z,50.90
2018-03-24T08:06:23.036Z,56.53
2018-03-24T08:08:50.379Z,63.60
2018-03-24T08:11:17.752Z,52.97
2018-03-24T08:13:45.119Z,53.90
2018-03-24T08:16:12.497Z,55.10
2018-03-24T08:18:39.847Z,57.40
2018-03-24T08:21:07.231Z,54.23
2018-03-24T08:23:34.573Z,52.63
2018-03-24T08:26:01.962Z,52.27
2018-03-24T08:28:29.309Z,55.93
2018-03-24T08:30:56.654Z,52.70
2018-03-24T08:33:24.072Z,53.37
2018-03-24T08:35:51.414Z,50.57
2018-03-24T08:38:18.811Z,57.90
2018-03-24T08:40:46.173Z,52.87
2018-03-24T08:43:13.541Z,46.87
2018-03-24T08:45:40.886Z,50.23
2018-03-24T08:48:08.274Z,50.20
2018-03-24T08:50:46.484Z,49.83
2018-03-24T08:53:19.450Z,53.20
2018-03-24T08:55:50.970Z,47.00
2018-03-24T08:58:26.937Z,46.20
2018-03-24T09:00:59.107Z,45.23
2018-03-24T09:03:34.772Z,47.10
2018-03-24T09:06:06.971Z,44.87
2018-03-24T09:08:38.890Z,48.17
2018-03-24T09:11:17.086Z,49.67
2018-03-24T09:13:50.905Z,46.30
2018-03-24T09:19:10.466Z,47.77
2018-03-24T09:21:45.652Z,44.77
2018-03-24T09:24:21.604Z,43.43
2018-03-24T09:26:56.228Z,48.60
2018-03-24T09:29:27.271Z,44.03
2018-03-24T09:32:02.124Z,39.40
2018-03-24T09:34:35.898Z,45.43
2018-03-24T09:37:06.751Z,62.13
2018-03-24T09:39:37.589Z,45.37
2018-03-24T09:42:13.336Z,43.93
2018-03-24T09:44:49.376Z,43.50
2018-03-24T09:47:19.248Z,40.80
2018-03-24T09:49:52.716Z,46.80
2018-03-24T09:52:24.454Z,44.70
2018-03-24T09:54:58.165Z,42.60
2018-03-24T09:57:31.551Z,41.73
2018-03-24T10:00:02.297Z,34.27
2018-03-24T10:05:19.049Z,46.60
2018-03-24T10:11:00.030Z,51.90
2018-03-24T10:13:41.852Z,44.80
2018-03-24T10:16:18.174Z,40.77
2018-03-24T10:18:49.934Z,40.97
2018-03-24T10:21:34.049Z,39.30
2018-03-24T10:24:09.874Z,34.43
2018-03-24T10:26:39.006Z,26.60
2018-03-24T10:32:03.800Z,29.60
2018-03-24T10:34:36.197Z,26.83
2018-03-24T10:37:20.983Z,26.97
2018-03-24T10:40:02.882Z,25.23
2018-03-24T10:42:37.298Z,23.90
2018-03-24T10:45:13.565Z,25.20
2018-03-24T10:47:44.602Z,24.83
2018-03-24T10:50:18.771Z,23.77
2018-03-24T10:52:49.759Z,25.50
2018-03-24T10:58:28.907Z,27.43
2018-03-24T11:01:04.801Z,25.63
2018-03-24T11:06:28.556Z,19.03
2018-03-24T11:09:16.470Z,23.40
2018-03-24T11:11:51.916Z,20.93
2018-03-24T11:14:21.320Z,22.70
2018-03-24T11:16:56.716Z,20.90
2018-03-24T11:19:32.109Z,19.67
2018-03-24T11:22:03.987Z,20.23
2018-03-24T11:24:37.771Z,20.90
2018-03-24T11:27:09.837Z,19.40
2018-03-24T11:29:44.996Z,23.67
2018-03-24T11:32:19.826Z,19.25
2018-03-24T11:34:53.815Z,24.23
2018-03-24T11:37:38.880Z,23.07
2018-03-24T11:40:13.566Z,24.90
2018-03-24T11:45:37.528Z,22.60
2018-03-24T11:51:01.526Z,22.80
2018-03-24T11:53:39.091Z,15.80
2018-03-24T11:56:12.403Z,19.10
2018-03-24T11:58:42.947Z,16.33
2018-03-24T12:01:15.214Z,22.10
2018-03-24T12:06:26.964Z,18.47
2018-03-24T12:09:00.722Z,17.37
2018-03-24T12:11:34.116Z,20.80
2018-03-24T12:14:09.344Z,40.08
2018-03-24T12:17:00.989Z,20.30
2018-03-24T12:19:34.367Z,17.80
2018-03-24T12:22:12.587Z,23.50
2018-03-24T12:24:47.505Z,21.92
2018-03-24T12:27:31.857Z,20.55
2018-03-24T12:30:10.579Z,17.83
2018-03-24T12:32:58.449Z,17.07
2018-03-24T12:35:33.471Z,64.47
2018-03-24T12:38:08.606Z,19.30
2018-03-24T12:40:43.313Z,19.63
2018-03-24T12:43:14.970Z,17.00
2018-03-24T12:45:50.964Z,15.27
2018-03-24T12:48:24.798Z,15.27
2018-03-24T12:51:01.059Z,15.77
2018-03-24T12:53:38.880Z,14.97
2018-03-24T12:56:12.280Z,15.00
2018-03-24T13:03:53.634Z,17.50
2018-03-24T13:06:23.083Z,16.73
2018-03-24T13:08:56.616Z,16.20
2018-03-24T13:11:40.748Z,16.20
2018-03-24T13:14:11.293Z,16.37
2018-03-24T13:19:27.837Z,19.80
2018-03-24T13:21:57.421Z,22.60
2018-03-24T13:24:31.596Z,15.13
2018-03-24T13:27:10.213Z,12.87
2018-03-24T13:29:42.140Z,16.27
2018-03-24T13:34:57.412Z,17.00
2018-03-24T13:37:43.818Z,18.13
2018-03-24T13:40:30.132Z,18.63
2018-03-24T13:43:03.734Z,19.47
2018-03-24T13:45:34.980Z,19.63
2018-03-24T13:48:09.176Z,15.57
2018-03-24T13:50:42.284Z,15.50
2018-03-24T13:53:18.770Z,21.83
2018-03-24T13:55:51.210Z,15.87
2018-03-24T13:58:35.753Z,16.40
2018-03-24T14:01:06.800Z,16.17
2018-03-24T14:03:39.086Z,16.20
2018-03-24T14:06:10.812Z,15.40
2018-03-24T14:08:45.173Z,16.00
2018-03-24T14:11:25.635Z,14.20
2018-03-24T14:13:56.985Z,15.07
2018-03-24T14:19:31.835Z,18.10
2018-03-24T14:22:11.388Z,14.33
2018-03-24T14:24:45.592Z,16.73
2018-03-24T14:27:19.725Z,15.90
2018-03-24T14:29:50.337Z,13.30
2018-03-24T14:32:23.939Z,17.37
2018-03-24T14:34:58.256Z,20.40
2018-03-24T14:37:29.795Z,15.77
2018-03-24T14:40:02.266Z,18.53
2018-03-24T14:42:43.054Z,17.10
2018-03-24T14:48:29.357Z,16.67
2018-03-24T14:51:02.990Z,14.03
2018-03-24T14:56:22.344Z,16.83
2018-03-24T14:58:59.655Z,14.10
2018-03-24T15:01:30.367Z,15.77
2018-03-24T15:09:24.585Z,13.70
2018-03-24T15:11:55.091Z,14.57
2018-03-24T15:14:26.072Z,17.37
2018-03-24T15:16:58.138Z,17.23
2018-03-24T15:19:32.640Z,16.40
2018-03-24T15:22:05.637Z,12.80
2018-03-24T15:24:36.749Z,13.97
2018-03-24T15:27:09.893Z,15.63
2018-03-24T15:29:46.228Z,16.93
2018-03-24T15:32:23.209Z,17.80
2018-03-24T15:34:58.471Z,15.53
2018-03-24T15:37:28.688Z,15.00
2018-03-24T15:40:07.290Z,18.17
2018-03-24T15:42:40.411Z,17.50
2018-03-24T15:45:11.216Z,17.20
2018-03-24T15:47:46.156Z,18.30
2018-03-24T15:50:16.865Z,17.83
2018-03-24T15:52:46.530Z,17.33
2018-03-24T15:55:14.098Z,18.30
2018-03-24T15:57:41.467Z,16.93
2018-03-24T16:00:08.824Z,19.57
2018-03-24T16:02:36.266Z,17.63
2018-03-24T16:05:03.717Z,16.33
2018-03-24T16:07:31.108Z,17.50
2018-03-24T16:09:58.445Z,16.30
2018-03-24T16:12:25.831Z,15.85
2018-03-24T16:14:53.726Z,14.77
2018-03-24T16:17:21.108Z,14.77
2018-03-24T16:19:48.471Z,16.17
2018-03-24T16:22:15.832Z,14.57
2018-03-24T16:24:43.178Z,16.80
2018-03-24T16:27:10.820Z,20.00
2018-03-24T16:29:38.249Z,15.50
2018-03-24T16:32:05.846Z,17.03
2018-03-24T16:34:33.402Z,17.53
2018-03-24T16:37:00.858Z,15.80
2018-03-24T16:39:28.422Z,16.63
2018-03-24T16:41:55.981Z,17.07
2018-03-24T16:44:23.578Z,14.63
2018-03-24T16:49:16.540Z,17.50
2018-03-24T16:51:43.909Z,14.00
2018-03-24T16:54:12.208Z,13.70
2018-03-24T16:56:40.826Z,17.57
2018-03-24T16:59:08.204Z,19.77
2018-03-24T17:01:35.537Z,17.93
2018-03-24T17:04:02.911Z,13.10
2018-03-24T17:06:30.263Z,17.13
2018-03-24T17:08:57.636Z,13.97
2018-03-24T17:11:24.988Z,18.30
2018-03-24T17:13:52.355Z,15.40
2018-03-24T17:16:19.709Z,15.27
2018-03-24T17:18:47.095Z,15.87
2018-03-24T17:21:14.450Z,20.87
2018-03-24T17:23:41.819Z,18.20
2018-03-24T17:26:09.162Z,17.67
2018-03-24T17:28:36.540Z,20.23
2018-03-24T17:31:04.183Z,17.53
2018-03-24T17:33:31.574Z,15.40
2018-03-24T17:35:58.916Z,15.27
2018-03-24T17:38:26.302Z,13.43
2018-03-24T17:40:53.646Z,15.47
2018-03-24T17:43:21.011Z,18.77
2018-03-24T17:45:48.367Z,14.97
2018-03-24T17:48:15.750Z,15.53
2018-03-24T17:50:43.128Z,15.80
2018-03-24T17:53:10.503Z,14.50
2018-03-24T17:55:37.920Z,16.07
2018-03-24T17:58:05.266Z,17.67
2018-03-24T18:00:32.629Z,17.67
2018-03-24T18:02:59.981Z,17.03
2018-03-24T18:05:27.358Z,23.30
2018-03-24T18:07:54.703Z,17.40
2018-03-24T18:10:22.119Z,23.33
2018-03-24T18:12:49.476Z,31.00
2018-03-24T18:15:16.850Z,37.23
2018-03-24T18:17:44.209Z,27.90
2018-03-24T18:20:11.583Z,20.93
2018-03-24T18:22:38.962Z,25.80
2018-03-24T18:25:06.525Z,19.97
2018-03-24T18:27:33.885Z,20.23
2018-03-24T18:30:01.294Z,20.23
2018-03-24T18:32:28.646Z,20.70
2018-03-24T18:34:56.024Z,18.57
2018-03-24T18:37:23.403Z,24.50
2018-03-24T18:39:50.772Z,18.03
2018-03-24T18:42:18.116Z,21.33
2018-03-24T18:44:45.491Z,21.30
2018-03-24T18:47:12.931Z,19.70
2018-03-24T18:49:40.300Z,20.30
2018-03-24T18:52:07.644Z,20.27
2018-03-24T18:54:35.019Z,20.30
2018-03-24T18:57:02.746Z,23.27
2018-03-24T18:59:30.143Z,24.60
2018-03-24T19:01:57.514Z,23.97
2018-03-24T19:04:24.912Z,25.23
2018-03-24T19:06:52.373Z,18.30
2018-03-24T19:09:19.759Z,27.60
2018-03-24T19:11:47.125Z,24.10
2018-03-24T19:14:15.174Z,23.40
2018-03-24T19:16:43.124Z,25.70
2018-03-24T19:19:10.592Z,26.53
2018-03-24T19:21:38.157Z,23.10
2018-03-24T19:24:05.550Z,23.90
2018-03-24T19:26:33.669Z,23.57
2018-03-24T19:29:01.195Z,25.33
2018-03-24T19:31:28.760Z,28.00
2018-03-24T19:33:56.145Z,22.90
2018-03-24T19:36:23.511Z,26.30
2018-03-24T19:38:50.958Z,24.07
2018-03-24T19:41:18.387Z,23.40
2018-03-24T19:43:45.761Z,28.23
2018-03-24T19:46:13.278Z,24.43
2018-03-24T19:48:41.068Z,21.87
2018-03-24T19:51:08.710Z,26.23
2018-03-24T19:53:36.138Z,28.27
2018-03-24T19:56:03.776Z,26.53
2018-03-24T19:58:31.226Z,27.50
2018-03-24T20:00:59.127Z,25.23
2018-03-24T20:03:26.577Z,23.63
2018-03-24T20:05:54.152Z,27.67
2018-03-24T20:08:21.518Z,24.37
2018-03-24T20:10:49.037Z,25.97
2018-03-24T20:13:16.523Z,24.90
2018-03-24T20:15:43.946Z,30.07
2018-03-24T20:18:11.367Z,25.23
2018-03-24T20:20:38.743Z,24.70
2018-03-24T20:23:06.323Z,29.00
2018-03-24T20:25:33.739Z,23.97
2018-03-24T20:28:01.111Z,31.13
2018-03-24T20:30:28.498Z,31.20
2018-03-24T20:32:56.148Z,29.23
2018-03-24T20:35:24.359Z,26.30
2018-03-24T20:37:52.036Z,28.77
2018-03-24T20:40:19.424Z,28.93
2018-03-24T20:42:46.799Z,25.63
2018-03-24T20:45:14.255Z,29.50
2018-03-24T20:47:41.623Z,28.40
2018-03-24T20:50:09.202Z,31.13
2018-03-24T20:52:36.680Z,26.03
2018-03-24T20:55:04.096Z,24.27
2018-03-24T20:57:31.620Z,29.03
2018-03-24T20:59:59.100Z,29.13
2018-03-24T21:02:26.743Z,30.10
2018-03-24T21:04:54.244Z,29.63
2018-03-24T21:07:21.644Z,25.43
2018-03-24T21:09:48.987Z,27.97
2018-03-24T21:12:16.438Z,27.33
2018-03-24T21:14:43.869Z,29.77
2018-03-24T21:17:11.256Z,31.83
2018-03-24T21:19:38.605Z,45.63
2018-03-24T21:22:05.997Z,32.87
2018-03-24T21:24:33.397Z,30.83
2018-03-24T21:27:00.787Z,39.27
2018-03-24T21:29:28.290Z,39.23
2018-03-24T21:31:55.679Z,39.97
2018-03-24T21:34:23.016Z,39.73
2018-03-24T21:36:50.407Z,37.30
2018-03-24T21:39:17.888Z,40.77
2018-03-24T21:41:45.267Z,41.00
2018-03-24T21:44:12.638Z,36.30
2018-03-24T21:46:40.043Z,37.23
2018-03-24T21:49:07.544Z,40.03
2018-03-24T21:51:35.110Z,34.20
2018-03-24T21:54:02.459Z,39.53
2018-03-24T21:56:29.839Z,31.03
2018-03-24T21:58:57.179Z,30.13
2018-03-24T22:01:24.554Z,33.73
2018-03-24T22:03:51.903Z,45.83
2018-03-24T22:06:19.276Z,44.40
2018-03-24T22:08:46.618Z,40.10
2018-03-24T22:11:14.932Z,41.93
2018-03-24T22:13:42.278Z,43.57
2018-03-24T22:16:09.645Z,41.20
2018-03-24T22:18:36.997Z,40.43
2018-03-24T22:21:04.366Z,43.63
2018-03-24T22:23:31.709Z,41.47
2018-03-24T22:25:59.087Z,46.50
2018-03-24T22:28:26.448Z,42.90
2018-03-24T22:30:53.822Z,38.70
2018-03-24T22:33:21.160Z,41.87
2018-03-24T22:35:48.526Z,40.07
2018-03-24T22:38:15.871Z,38.17
2018-03-24T22:40:43.214Z,43.60
2018-03-24T22:43:10.606Z,42.77
2018-03-24T22:45:37.997Z,40.30
2018-03-24T22:48:05.355Z,39.00
2018-03-24T22:50:32.690Z,35.80
2018-03-24T22:53:00.060Z,35.87
2018-03-24T22:55:27.399Z,35.50
2018-03-24T22:57:54.769Z,32.87
2018-03-24T23:00:22.118Z,36.63
2018-03-24T23:02:49.511Z,32.57
2018-03-24T23:05:16.886Z,33.37
2018-03-24T23:07:44.255Z,34.50
2018-03-24T23:10:11.602Z,32.50
2018-03-24T23:12:39.003Z,36.57
2018-03-24T23:15:06.364Z,33.40
2018-03-24T23:17:33.731Z,36.10
2018-03-24T23:20:01.076Z,37.47
2018-03-24T23:22:28.469Z,32.57
2018-03-24T23:24:55.824Z,35.33
2018-03-24T23:27:23.215Z,35.57
2018-03-24T23:29:50.566Z,32.20
2018-03-24T23:32:17.926Z,42.37
2018-03-24T23:34:45.266Z,35.27
2018-03-24T23:37:12.655Z,33.17
2018-03-24T23:39:39.996Z,30.93
2018-03-24T23:42:07.372Z,32.80
2018-03-24T23:44:34.735Z,36.20
2018-03-24T23:47:02.106Z,32.83
2018-03-24T23:49:29.447Z,35.43
2018-03-24T23:51:56.816Z,30.40
2018-03-24T23:54:24.154Z,31.70
2018-03-24T23:56:51.534Z,34.50
2018-03-24T23:59:18.872Z,38.90
